Time;durP1;ratioP1;P1;durP2;ratioP2;P2;SDS_P1;SDS_P2;PMS_P1;PMS_P2;Temp;Humidity;BMP_temperature;BMP_pressure;BME280_temperature;BME280_humidity;BME280_pressure;Samples;Min_cycle;Max_cycle;Signal;HPM_P1;HPM_P2
2023/05/11 00:02:07;;;;;;;11.50;7.38;;;17.00;99.90;;;;;;4996898;28;20177;-73
2023/05/11 00:04:32;;;;;;;12.68;8.60;;;17.50;99.90;;;;;;5030297;28;20041;-75
2023/05/11 00:06:58;;;;;;;16.08;8.50;;;16.00;99.90;;;;;;5029250;28;20115;-74
2023/05/11 00:09:24;;;;;;;14.30;8.07;;;15.30;99.90;;;;;;5030430;28;20041;-75
2023/05/11 00:11:51;;;;;;;12.95;8.07;;;15.30;99.90;;;;;;5027378;28;20134;-73
2023/05/11 00:14:17;;;;;;;19.08;7.60;;;16.60;99.90;;;;;;5030141;28;20115;-76
2023/05/11 00:16:43;;;;;;;11.95;6.75;;;16.20;99.90;;;;;;5031139;28;20124;-74
2023/05/11 00:19:08;;;;;;;11.20;7.65;;;15.50;99.90;;;;;;5008624;28;20072;-79
2023/05/11 00:21:34;;;;;;;11.40;7.95;;;16.40;99.90;;;;;;5014178;28;20041;-76
2023/05/11 00:24:00;;;;;;;12.10;8.25;;;16.20;99.90;;;;;;5030565;28;20040;-74
2023/05/11 00:26:25;;;;;;;18.52;8.68;;;17.00;99.90;;;;;;5027714;28;20047;-75
2023/05/11 00:28:51;;;;;;;13.95;7.82;;;17.30;99.90;;;;;;5024987;28;20037;-75
2023/05/11 00:31:17;;;;;;;16.90;8.05;;;15.60;99.90;;;;;;5028165;28;20045;-72
2023/05/11 00:33:42;;;;;;;18.42;9.00;;;17.40;99.90;;;;;;5027222;28;20045;-73
2023/05/11 00:36:08;;;;;;;13.95;7.35;;;17.50;99.90;;;;;;5030452;28;20043;-75
2023/05/11 00:38:35;;;;;;;14.32;8.75;;;17.50;99.90;;;;;;5027500;28;20075;-73
2023/05/11 00:41:02;;;;;;;12.18;7.55;;;15.70;99.90;;;;;;5028246;28;20182;-76
2023/05/11 00:43:27;;;;;;;12.32;6.47;;;16.50;99.90;;;;;;5029508;28;20072;-76
2023/05/11 00:45:53;;;;;;;14.45;8.27;;;16.30;99.90;;;;;;5027577;28;20405;-72
2023/05/11 00:48:19;;;;;;;12.77;8.02;;;16.10;99.90;;;;;;5026933;28;20041;-71
2023/05/11 00:50:45;;;;;;;15.60;7.35;;;15.50;99.90;;;;;;5029438;28;20091;-73
2023/05/11 00:53:12;;;;;;;15.68;8.18;;;16.60;99.90;;;;;;5029134;28;20045;-74
2023/05/11 00:55:37;;;;;;;14.38;7.82;;;15.70;99.90;;;;;;5024139;28;20049;-76
2023/05/11 00:58:06;;;;;;;11.23;7.35;;;15.20;99.90;;;;;;5027508;28;20049;-73
2023/05/11 01:00:31;;;;;;;12.95;7.15;;;17.40;99.90;;;;;;5013625;28;20094;-74
2023/05/11 01:02:58;;;;;;;9.73;7.35;;;17.10;99.90;;;;;;5026518;28;20037;-71
2023/05/11 01:05:56;;;;;;;10.88;7.00;;;15.20;99.90;;;;;;5008571;28;20112;-71
2023/05/11 01:08:36;;;;;;;20.95;8.00;;;15.10;99.90;;;;;;5042128;28;20037;-73
2023/05/11 01:11:08;;;;;;;9.27;6.75;;;15.00;99.90;;;;;;5029449;28;20120;-73
2023/05/11 01:13:41;;;;;;;43.38;7.80;;;17.30;99.90;;;;;;5029370;28;20045;-73
2023/05/11 01:16:23;;;;;;;22.10;8.27;;;16.40;99.90;;;;;;5029473;28;20045;-74
2023/05/11 01:19:00;;;;;;;10.05;7.43;;;16.70;99.90;;;;;;5027225;28;20045;-72
2023/05/11 01:21:32;;;;;;;13.55;7.18;;;16.50;99.90;;;;;;5040492;28;20048;-74
2023/05/11 01:24:25;;;;;;;17.38;7.47;;;16.60;99.90;;;;;;5027569;28;20076;-73
2023/05/11 01:27:47;;;;;;;23.27;7.57;;;16.60;99.90;;;;;;5028617;28;20883;-71
2023/05/11 01:30:39;;;;;;;26.77;7.85;;;17.30;99.90;;;;;;4963149;28;20172;-73
2023/05/11 01:33:10;;;;;;;18.60;7.57;;;16.80;99.90;;;;;;4983669;28;20046;-73
2023/05/11 01:35:41;;;;;;;39.88;8.05;;;15.30;99.90;;;;;;5014679;28;20057;-73
2023/05/11 01:38:11;;;;;;;36.83;8.48;;;15.20;99.90;;;;;;5024424;28;20091;-77
2023/05/11 01:40:40;;;;;;;20.65;8.40;;;16.00;99.90;;;;;;5028483;28;20044;-75
2023/05/11 01:43:12;;;;;;;13.05;7.97;;;16.10;99.90;;;;;;5022674;28;20144;-71
2023/05/11 01:45:42;;;;;;;15.00;7.35;;;16.30;99.90;;;;;;5029068;28;20440;-74
2023/05/11 01:48:15;;;;;;;11.63;7.15;;;16.90;99.90;;;;;;5028010;28;20040;-72
2023/05/11 01:50:41;;;;;;;10.25;7.05;;;16.80;99.90;;;;;;5012527;28;20699;-76
2023/05/11 01:53:09;;;;;;;13.13;7.22;;;15.80;99.90;;;;;;5013658;28;20503;-73
2023/05/11 01:55:36;;;;;;;13.48;7.38;;;15.60;99.90;;;;;;5009828;28;20036;-74
2023/05/11 01:58:04;;;;;;;14.10;9.13;;;16.10;99.90;;;;;;5028694;28;20448;-75
2023/05/11 02:00:32;;;;;;;28.15;11.77;;;17.30;99.90;;;;;;5009466;28;20052;-75
2023/05/11 02:03:00;;;;;;;25.20;10.48;;;15.10;99.90;;;;;;5029533;28;20365;-77
2023/05/11 02:05:28;;;;;;;29.30;11.00;;;16.50;99.90;;;;;;5026815;28;20044;-75
2023/05/11 02:07:56;;;;;;;34.08;11.93;;;16.40;99.90;;;;;;5028657;28;20041;-76
2023/05/11 02:10:25;;;;;;;34.85;11.73;;;15.10;99.90;;;;;;5028030;28;20049;-76
2023/05/11 02:12:52;;;;;;;33.35;11.88;;;15.00;99.90;;;;;;5027460;28;20131;-75
2023/05/11 02:15:20;;;;;;;68.07;12.38;;;16.60;99.90;;;;;;5011768;28;20044;-74
2023/05/11 02:17:46;;;;;;;33.53;11.38;;;14.90;99.90;;;;;;5025073;28;20128;-71
2023/05/11 02:20:14;;;;;;;27.92;10.82;;;16.70;99.90;;;;;;5009903;28;20191;-72
2023/05/11 02:22:41;;;;;;;25.77;10.18;;;15.50;99.90;;;;;;5021399;28;20098;-73
2023/05/11 02:25:08;;;;;;;41.30;11.13;;;16.90;99.90;;;;;;5030096;28;20045;-74
2023/05/11 02:27:34;;;;;;;36.03;11.05;;;15.50;99.90;;;;;;5027463;28;20052;-74
2023/05/11 02:30:02;;;;;;;30.40;11.35;;;16.20;99.90;;;;;;5026108;28;20049;-74
2023/05/11 02:32:31;;;;;;;24.30;9.85;;;18.90;99.90;;;;;;5030262;28;20045;-75
2023/05/11 02:35:05;;;;;;;32.17;10.25;;;17.50;99.90;;;;;;5015292;28;20112;-77
2023/05/11 02:37:33;;;;;;;29.85;11.55;;;16.70;99.90;;;;;;5029710;28;20036;-77
2023/05/11 02:40:03;;;;;;;32.10;10.70;;;17.30;99.90;;;;;;5030881;28;20090;-73
2023/05/11 02:42:35;;;;;;;26.15;10.65;;;17.50;99.90;;;;;;5030311;28;20053;-74
2023/05/11 02:45:04;;;;;;;28.60;10.43;;;16.60;99.90;;;;;;5029571;28;20473;-71
2023/05/11 02:47:35;;;;;;;45.85;12.57;;;16.40;99.90;;;;;;5030524;28;20048;-76
2023/05/11 02:50:03;;;;;;;61.05;13.98;;;16.90;99.90;;;;;;5018145;28;20041;-72
2023/05/11 02:52:31;;;;;;;41.03;11.98;;;17.40;99.90;;;;;;5030596;28;20202;-77
2023/05/11 02:55:00;;;;;;;35.22;13.10;;;16.20;99.90;;;;;;5032659;28;20589;-76
2023/05/11 02:57:25;;;;;;;47.72;13.75;;;17.30;99.90;;;;;;5031145;28;20064;-74
2023/05/11 02:59:52;;;;;;;57.72;13.95;;;17.20;99.90;;;;;;5030819;28;20048;-72
2023/05/11 03:02:18;;;;;;;58.25;13.90;;;16.30;99.90;;;;;;5032231;28;20041;-75
2023/05/11 03:04:43;;;;;;;51.00;14.88;;;16.70;99.90;;;;;;5013326;28;20052;-76
2023/05/11 03:07:09;;;;;;;68.95;15.23;;;15.40;99.90;;;;;;4996673;28;20416;-75
2023/05/11 03:09:35;;;;;;;75.65;17.02;;;15.10;99.90;;;;;;5044652;28;20045;-75
2023/05/11 03:12:02;;;;;;;93.10;17.90;;;17.30;99.90;;;;;;5031932;28;20056;-73
2023/05/11 03:14:31;;;;;;;88.78;16.80;;;15.30;99.90;;;;;;5031318;28;20057;-74
2023/05/11 03:16:58;;;;;;;95.35;18.77;;;15.00;99.90;;;;;;5024823;28;20116;-72
2023/05/11 03:19:25;;;;;;;85.35;17.63;;;15.40;99.90;;;;;;5048740;28;20037;-74
2023/05/11 03:21:53;;;;;;;60.08;17.80;;;16.70;99.90;;;;;;5028457;28;20055;-71
2023/05/11 03:24:19;;;;;;;95.65;19.05;;;17.20;99.90;;;;;;5015645;28;20157;-73
2023/05/11 03:26:46;;;;;;;91.47;18.63;;;15.80;99.90;;;;;;5030332;28;20072;-73
2023/05/11 03:29:13;;;;;;;65.97;18.55;;;16.00;99.90;;;;;;5030020;28;20052;-71
2023/05/11 03:31:39;;;;;;;98.97;19.10;;;15.20;99.90;;;;;;5031915;28;20071;-73
2023/05/11 03:34:04;;;;;;;89.28;18.55;;;16.00;99.90;;;;;;5012964;28;20041;-73
2023/05/11 03:36:32;;;;;;;77.68;20.27;;;15.90;99.90;;;;;;5028570;28;20040;-75
2023/05/11 03:38:59;;;;;;;77.07;20.23;;;14.90;99.90;;;;;;5030336;28;20091;-73
2023/05/11 03:41:30;;;;;;;88.70;19.23;;;15.20;99.90;;;;;;5015087;28;20072;-73
2023/05/11 03:43:58;;;;;;;73.95;18.23;;;16.00;99.90;;;;;;5048195;28;20056;-71
2023/05/11 03:46:25;;;;;;;85.75;20.08;;;16.30;99.90;;;;;;5030740;28;20059;-73
2023/05/11 03:48:52;;;;;;;76.88;19.08;;;15.00;99.90;;;;;;5011024;28;20063;-76
2023/05/11 03:51:18;;;;;;;65.88;18.58;;;16.70;99.90;;;;;;5030634;28;20041;-73
2023/05/11 03:53:45;;;;;;;102.55;19.85;;;17.40;99.90;;;;;;5028888;28;20033;-74
2023/05/11 03:56:11;;;;;;;59.10;18.05;;;17.40;99.90;;;;;;5032113;28;20040;-73
2023/05/11 03:58:40;;;;;;;46.10;17.40;;;15.70;99.90;;;;;;5030370;28;20051;-73
2023/05/11 04:01:10;;;;;;;53.80;17.63;;;15.30;99.90;;;;;;5030631;28;20366;-73
2023/05/11 04:03:47;;;;;;;58.92;19.20;;;15.80;99.90;;;;;;5010472;28;20045;-74
2023/05/11 04:06:14;;;;;;;61.90;19.38;;;15.80;99.90;;;;;;5023853;28;20037;-75
2023/05/11 04:08:39;;;;;;;70.38;19.55;;;16.20;99.90;;;;;;5029377;28;20099;-74
2023/05/11 04:11:05;;;;;;;52.70;18.33;;;15.60;99.90;;;;;;5013812;28;20052;-74
2023/05/11 04:13:31;;;;;;;49.15;18.75;;;17.70;99.90;;;;;;4994301;28;20041;-74
2023/05/11 04:15:56;;;;;;;46.15;18.00;;;17.90;99.90;;;;;;5031380;28;20044;-74
2023/05/11 04:18:22;;;;;;;55.55;18.77;;;16.20;99.90;;;;;;5013911;28;20130;-73
2023/05/11 04:20:47;;;;;;;39.40;17.83;;;15.90;99.90;;;;;;5039392;28;20041;-76
2023/05/11 04:23:14;;;;;;;39.40;16.80;;;16.80;99.90;;;;;;5028927;28;20079;-73
2023/05/11 04:25:40;;;;;;;45.05;17.38;;;16.20;99.90;;;;;;5026968;28;20043;-74
2023/05/11 04:28:05;;;;;;;45.58;17.52;;;15.30;99.90;;;;;;5009862;28;20036;-73
2023/05/11 04:30:31;;;;;;;45.65;17.20;;;17.10;99.90;;;;;;5012900;28;20029;-76
2023/05/11 04:32:57;;;;;;;40.25;15.82;;;16.80;99.90;;;;;;5028858;28;20044;-77
2023/05/11 04:35:23;;;;;;;41.30;17.10;;;15.70;99.90;;;;;;5029491;28;20358;-75
2023/05/11 04:37:49;;;;;;;41.63;16.30;;;15.00;99.90;;;;;;5010714;28;20029;-73
2023/05/11 04:40:15;;;;;;;43.95;16.83;;;15.00;99.90;;;;;;5029763;28;20047;-75
2023/05/11 04:42:41;;;;;;;34.08;14.85;;;15.00;99.90;;;;;;4998210;28;20057;-72
2023/05/11 04:45:07;;;;;;;28.80;14.23;;;17.60;99.90;;;;;;5026979;28;20094;-73
2023/05/11 04:47:33;;;;;;;33.83;14.65;;;16.20;99.90;;;;;;5013118;28;20037;-74
2023/05/11 04:49:58;;;;;;;29.88;13.52;;;17.50;99.90;;;;;;5011865;28;20051;-72
2023/05/11 04:52:24;;;;;;;25.65;12.35;;;15.40;99.90;;;;;;4998571;28;20052;-73
2023/05/11 04:54:50;;;;;;;26.35;13.07;;;14.90;99.90;;;;;;5028864;28;20166;-72
2023/05/11 04:57:15;;;;;;;27.40;13.35;;;17.40;99.90;;;;;;5029173;28;20037;-73
2023/05/11 04:59:41;;;;;;;27.85;13.00;;;14.90;99.90;;;;;;5024713;28;20029;-74
2023/05/11 05:02:06;;;;;;;27.58;13.13;;;15.40;99.90;;;;;;5009896;28;20076;-73
2023/05/11 05:04:32;;;;;;;24.73;11.40;;;16.80;99.90;;;;;;5022664;28;20041;-75
2023/05/11 05:06:58;;;;;;;25.67;12.73;;;14.80;99.90;;;;;;5028735;28;20041;-72
2023/05/11 05:09:23;;;;;;;24.95;12.07;;;16.80;99.90;;;;;;5025432;28;20854;-74
2023/05/11 05:11:49;;;;;;;32.35;13.68;;;14.80;99.90;;;;;;5013677;28;20072;-75
2023/05/11 05:14:15;;;;;;;25.23;12.07;;;17.50;99.90;;;;;;5029693;28;20045;-72
2023/05/11 05:16:40;;;;;;;33.90;12.20;;;15.70;99.90;;;;;;5008107;28;20462;-72
2023/05/11 05:19:06;;;;;;;36.60;13.90;;;16.80;99.90;;;;;;5002396;28;20039;-72
2023/05/11 05:21:34;;;;;;;34.92;13.18;;;14.80;99.90;;;;;;5029156;28;20037;-77
2023/05/11 05:24:02;;;;;;;33.40;12.20;;;15.90;99.90;;;;;;5030065;28;20058;-77
2023/05/11 05:26:28;;;;;;;38.10;12.68;;;15.10;99.90;;;;;;4995715;28;20094;-72
2023/05/11 05:28:53;;;;;;;32.83;12.88;;;16.40;99.90;;;;;;5012018;28;20098;-73
2023/05/11 05:31:19;;;;;;;36.17;12.43;;;15.50;99.90;;;;;;5029067;28;20535;-73
2023/05/11 05:33:45;;;;;;;33.63;12.20;;;17.80;99.90;;;;;;5011915;28;20487;-73
2023/05/11 05:36:10;;;;;;;34.10;12.68;;;14.90;99.90;;;;;;5028423;28;20087;-72
2023/05/11 05:38:36;;;;;;;29.67;11.10;;;17.80;99.90;;;;;;4995919;28;20033;-74
2023/05/11 05:41:02;;;;;;;32.05;12.10;;;15.50;99.90;;;;;;4994728;28;20049;-75
2023/05/11 05:43:27;;;;;;;27.92;11.38;;;15.00;99.90;;;;;;5008066;28;20681;-73
2023/05/11 05:45:53;;;;;;;30.83;12.57;;;16.40;99.90;;;;;;5025064;28;20041;-75
2023/05/11 05:48:19;;;;;;;30.80;11.77;;;15.90;99.90;;;;;;5026212;28;20063;-73
2023/05/11 05:50:46;;;;;;;26.20;10.90;;;17.40;99.90;;;;;;5011795;28;20036;-75
2023/05/11 05:53:11;;;;;;;24.55;11.82;;;16.00;99.90;;;;;;5028004;28;20036;-72
2023/05/11 05:55:37;;;;;;;32.05;13.05;;;15.50;99.90;;;;;;5029122;28;20685;-81
2023/05/11 05:58:02;;;;;;;31.40;13.57;;;16.90;99.90;;;;;;5011366;28;20041;-74
2023/05/11 06:00:28;;;;;;;32.63;14.05;;;17.30;99.90;;;;;;5029461;28;20449;-72
2023/05/11 06:02:54;;;;;;;32.92;14.55;;;17.50;99.90;;;;;;5010654;28;20033;-74
2023/05/11 06:05:20;;;;;;;43.53;16.77;;;16.40;99.90;;;;;;5012322;28;20079;-72
2023/05/11 06:07:45;;;;;;;38.10;16.13;;;16.30;99.90;;;;;;5012717;28;20128;-74
2023/05/11 06:10:11;;;;;;;44.42;15.88;;;16.80;99.90;;;;;;5026598;28;20045;-74
2023/05/11 06:12:40;;;;;;;38.42;15.48;;;17.40;99.90;;;;;;5028626;28;20056;-75
2023/05/11 06:15:07;;;;;;;38.83;15.70;;;15.30;99.90;;;;;;5011067;28;20045;-78
2023/05/11 06:17:32;;;;;;;36.30;15.00;;;17.50;99.90;;;;;;5026706;28;20116;-80
2023/05/11 06:19:58;;;;;;;28.55;13.02;;;16.40;99.90;;;;;;5026194;28;20432;-74
2023/05/11 06:22:23;;;;;;;25.58;12.38;;;16.10;99.90;;;;;;5030178;28;20386;-74
2023/05/11 06:24:49;;;;;;;23.67;10.75;;;17.40;99.90;;;;;;4999499;28;20404;-75
2023/05/11 06:27:15;;;;;;;20.63;10.77;;;18.20;99.90;;;;;;5030414;28;20052;-78
2023/05/11 06:29:41;;;;;;;24.00;10.10;;;16.20;99.90;;;;;;5034039;28;20126;-76
2023/05/11 06:32:07;;;;;;;21.33;11.65;;;15.80;99.90;;;;;;5016319;28;20076;-73
2023/05/11 06:34:32;;;;;;;20.38;10.75;;;15.70;99.90;;;;;;5031621;28;20044;-76
2023/05/11 06:36:59;;;;;;;19.25;11.20;;;18.40;99.90;;;;;;5013400;28;20044;-75
2023/05/11 06:39:24;;;;;;;19.80;11.20;;;18.50;99.90;;;;;;5032186;28;20049;-78
2023/05/11 06:41:53;;;;;;;22.45;11.88;;;16.00;99.90;;;;;;5029647;28;20059;-76
2023/05/11 06:44:19;;;;;;;21.42;11.70;;;16.40;99.90;;;;;;5012244;28;20177;-75
2023/05/11 06:46:45;;;;;;;21.25;11.55;;;16.90;99.90;;;;;;5014782;28;20631;-76
2023/05/11 06:49:11;;;;;;;23.60;13.13;;;18.50;99.90;;;;;;5016997;28;20128;-79
2023/05/11 06:51:36;;;;;;;24.02;12.48;;;16.70;99.90;;;;;;5030969;28;20127;-74
2023/05/11 06:54:02;;;;;;;20.25;11.63;;;18.40;99.90;;;;;;5013956;28;20040;-76
2023/05/11 06:56:28;;;;;;;21.70;12.00;;;18.30;99.90;;;;;;5032317;28;20037;-75
2023/05/11 06:58:54;;;;;;;20.48;12.65;;;17.10;99.90;;;;;;5014628;28;20041;-74
2023/05/11 07:01:19;;;;;;;18.65;11.57;;;16.00;99.90;;;;;;5031820;28;20048;-76
2023/05/11 07:03:47;;;;;;;21.42;13.00;;;16.20;99.90;;;;;;5033257;28;20605;-77
2023/05/11 07:06:13;;;;;;;26.65;13.10;;;18.50;99.90;;;;;;5033002;28;20041;-78
2023/05/11 07:08:39;;;;;;;22.33;13.10;;;17.10;99.90;;;;;;5014958;28;20055;-77
2023/05/11 07:11:05;;;;;;;19.63;12.38;;;16.60;99.90;;;;;;5030659;28;20049;-75
2023/05/11 07:13:31;;;;;;;21.98;12.00;;;17.20;99.90;;;;;;5013206;28;20043;-78
2023/05/11 07:15:57;;;;;;;19.80;12.52;;;17.60;99.90;;;;;;5030665;28;20124;-77
2023/05/11 07:18:23;;;;;;;21.60;12.02;;;19.10;99.90;;;;;;5027941;28;20068;-73
2023/05/11 07:20:49;;;;;;;16.92;11.68;;;17.80;99.90;;;;;;5031424;28;20041;-73
2023/05/11 07:23:15;;;;;;;18.38;10.55;;;18.50;99.90;;;;;;5014458;28;20033;-79
2023/05/11 07:25:42;;;;;;;20.40;12.02;;;17.90;99.90;;;;;;5031348;28;20044;-74
2023/05/11 07:28:07;;;;;;;19.25;11.98;;;17.20;99.90;;;;;;5029581;28;20045;-73
2023/05/11 07:30:33;;;;;;;17.88;12.10;;;16.40;99.90;;;;;;5029816;28;20114;-74
2023/05/11 07:32:59;;;;;;;20.08;11.25;;;18.40;99.90;;;;;;5012484;28;20080;-76
2023/05/11 07:35:24;;;;;;;17.40;10.80;;;18.40;99.90;;;;;;5011912;28;20435;-77
2023/05/11 07:37:50;;;;;;;21.45;14.02;;;18.20;99.90;;;;;;5026145;28;20152;-75
2023/05/11 07:40:16;;;;;;;21.42;13.55;;;17.30;99.90;;;;;;5029008;28;20041;-78
2023/05/11 07:42:41;;;;;;;20.00;12.20;;;19.30;99.90;;;;;;5013712;28;20141;-75
2023/05/11 07:45:08;;;;;;;24.25;13.15;;;16.50;99.90;;;;;;5013541;28;20381;-76
2023/05/11 07:47:33;;;;;;;23.25;13.65;;;16.90;99.90;;;;;;5021282;28;20037;-73
2023/05/11 07:49:59;;;;;;;22.38;14.13;;;19.10;99.90;;;;;;4995910;28;20616;-76
2023/05/11 07:52:25;;;;;;;20.42;13.02;;;18.50;99.90;;;;;;5030033;28;20041;-75
2023/05/11 07:54:51;;;;;;;18.70;12.00;;;18.90;99.90;;;;;;4994777;28;20037;-76
2023/05/11 07:57:17;;;;;;;18.92;12.25;;;18.80;99.90;;;;;;5026472;28;20444;-75
2023/05/11 07:59:43;;;;;;;20.08;12.65;;;17.60;99.90;;;;;;5008542;28;20660;-77
2023/05/11 08:02:09;;;;;;;19.77;12.48;;;18.20;99.90;;;;;;5014118;28;20052;-74
2023/05/11 08:04:35;;;;;;;22.73;13.02;;;19.20;99.90;;;;;;5009407;28;20040;-78
2023/05/11 08:07:01;;;;;;;20.17;12.90;;;17.10;99.90;;;;;;4989925;28;20059;-77
2023/05/11 08:09:28;;;;;;;21.30;12.98;;;16.70;99.90;;;;;;5028603;28;20090;-75
2023/05/11 08:11:55;;;;;;;22.58;12.73;;;18.20;99.90;;;;;;5029103;28;20512;-75
2023/05/11 08:14:21;;;;;;;19.58;11.60;;;18.40;99.90;;;;;;5026189;28;20036;-75
2023/05/11 08:16:48;;;;;;;17.52;11.77;;;16.80;99.90;;;;;;5028000;28;20037;-76
2023/05/11 08:19:14;;;;;;;18.35;11.68;;;16.70;99.90;;;;;;5040714;28;20120;-75
2023/05/11 08:21:39;;;;;;;19.58;11.73;;;19.10;99.90;;;;;;5023282;28;20128;-77
2023/05/11 08:24:05;;;;;;;21.27;13.48;;;19.50;99.90;;;;;;5027582;28;20127;-76
2023/05/11 08:26:32;;;;;;;23.70;13.77;;;19.40;99.90;;;;;;5026076;28;20120;-77
2023/05/11 08:28:58;;;;;;;22.98;13.18;;;17.70;99.90;;;;;;5009122;28;20065;-78
2023/05/11 08:31:23;;;;;;;25.08;14.38;;;18.10;99.90;;;;;;5013469;28;20069;-76
2023/05/11 08:33:49;;;;;;;24.02;14.07;;;19.10;99.90;;;;;;5043723;28;20040;-75
2023/05/11 08:36:15;;;;;;;24.08;13.95;;;17.60;99.90;;;;;;4994955;28;20424;-78
2023/05/11 08:38:40;;;;;;;20.02;12.82;;;19.20;99.90;;;;;;5027765;28;20039;-76
2023/05/11 08:41:06;;;;;;;27.60;15.90;;;19.20;99.90;;;;;;5029527;28;20465;-76
2023/05/11 08:43:38;;;;;;;24.08;13.48;;;19.60;99.90;;;;;;5028787;28;20060;-76
2023/05/11 08:46:08;;;;;;;23.95;14.20;;;18.70;99.90;;;;;;5010897;28;20124;-77
2023/05/11 08:48:34;;;;;;;22.38;13.68;;;18.00;99.90;;;;;;5030102;28;20124;-77
2023/05/11 08:51:02;;;;;;;27.20;15.45;;;18.20;99.90;;;;;;5028726;28;20517;-76
2023/05/11 08:53:28;;;;;;;24.98;14.27;;;19.10;99.90;;;;;;5022957;28;20037;-76
2023/05/11 08:55:57;;;;;;;22.65;13.77;;;17.80;99.90;;;;;;5010394;28;20557;-78
2023/05/11 08:58:23;;;;;;;26.83;14.77;;;18.30;99.90;;;;;;5029445;28;20040;-72
2023/05/11 09:00:49;;;;;;;26.33;15.93;;;16.90;99.90;;;;;;5034879;28;20041;-74
2023/05/11 09:03:16;;;;;;;26.58;14.77;;;17.00;99.90;;;;;;5011754;28;20444;-73
2023/05/11 09:05:45;;;;;;;27.48;15.50;;;17.70;99.90;;;;;;5031045;28;20045;-76
2023/05/11 09:08:12;;;;;;;27.30;14.77;;;18.50;99.90;;;;;;5029699;28;20142;-75
2023/05/11 09:10:38;;;;;;;29.90;16.02;;;18.20;99.90;;;;;;5026807;28;20080;-74
2023/05/11 09:13:05;;;;;;;25.92;13.82;;;19.50;99.90;;;;;;5025061;28;20068;-76
2023/05/11 09:15:31;;;;;;;27.42;15.00;;;17.70;99.90;;;;;;4995765;28;20116;-73
2023/05/11 09:17:57;;;;;;;25.20;14.13;;;19.00;99.90;;;;;;5029777;28;20099;-76
2023/05/11 09:20:28;;;;;;;25.85;15.20;;;18.00;99.90;;;;;;5026991;28;20043;-73
2023/05/11 09:22:54;;;;;;;25.58;14.35;;;19.60;99.90;;;;;;5028902;28;20040;-76
2023/05/11 09:25:21;;;;;;;23.63;14.30;;;18.00;99.90;;;;;;5027754;28;20636;-76
2023/05/11 09:27:47;;;;;;;25.55;15.27;;;17.80;99.90;;;;;;5022872;28;20067;-75
2023/05/11 09:30:19;;;;;;;28.95;15.75;;;17.60;99.90;;;;;;5008867;28;20045;-77
2023/05/11 09:32:53;;;;;;;28.98;16.75;;;18.60;99.90;;;;;;5029484;28;20128;-75
2023/05/11 09:35:29;;;;;;;29.55;15.25;;;19.80;99.90;;;;;;5026196;28;20059;-77
2023/05/11 09:38:04;;;;;;;24.83;14.45;;;20.10;99.90;;;;;;5027592;28;20083;-77
2023/05/11 09:40:32;;;;;;;24.15;14.27;;;18.00;99.90;;;;;;5022523;28;20040;-76
2023/05/11 09:42:58;;;;;;;22.17;14.55;;;20.40;99.90;;;;;;5020734;28;20541;-74
2023/05/11 09:45:40;;;;;;;22.77;13.40;;;19.20;99.90;;;;;;5022096;28;20155;-75
2023/05/11 09:48:19;;;;;;;20.63;12.90;;;20.00;99.90;;;;;;5001528;28;20073;-74
2023/05/11 09:50:46;;;;;;;19.50;11.77;;;19.90;99.90;;;;;;5025863;28;20049;-78
2023/05/11 09:53:12;;;;;;;20.60;13.73;;;20.40;99.90;;;;;;5020497;28;20115;-76
2023/05/11 09:55:37;;;;;;;20.02;12.88;;;18.70;99.90;;;;;;5009590;28;20033;-79
2023/05/11 09:58:03;;;;;;;23.90;14.20;;;19.20;99.90;;;;;;5011608;28;20524;-76
2023/05/11 10:00:30;;;;;;;21.70;13.63;;;19.60;99.90;;;;;;5009738;28;20108;-74
2023/05/11 10:03:04;;;;;;;24.02;14.43;;;18.90;99.90;;;;;;4996544;28;20041;-77
2023/05/11 10:05:35;;;;;;;21.27;13.07;;;19.90;99.90;;;;;;5008894;28;20166;-76
2023/05/11 10:08:03;;;;;;;23.83;13.65;;;19.30;99.90;;;;;;5024020;28;20147;-78
2023/05/11 10:10:30;;;;;;;21.17;13.20;;;20.70;99.90;;;;;;5010950;28;20822;-76
2023/05/11 10:13:01;;;;;;;17.08;11.70;;;20.50;99.90;;;;;;5025399;28;20184;-80
2023/05/11 10:15:29;;;;;;;21.58;12.85;;;20.80;99.90;;;;;;5002646;28;20049;-76
2023/05/11 10:17:56;;;;;;;26.38;14.15;;;21.00;99.90;;;;;;5007395;28;20038;-75
2023/05/11 10:20:23;;;;;;;21.02;13.32;;;19.60;99.90;;;;;;5008904;28;20042;-76
2023/05/11 10:22:54;;;;;;;21.20;14.95;;;20.60;99.90;;;;;;5024448;28;20111;-77
2023/05/11 10:25:26;;;;;;;24.80;15.20;;;20.90;99.90;;;;;;5008304;28;20053;-74
2023/05/11 10:27:53;;;;;;;22.15;15.10;;;21.60;99.90;;;;;;5024809;28;20076;-76
2023/05/11 10:30:19;;;;;;;22.98;16.15;;;21.70;99.90;;;;;;5026108;28;20080;-77
2023/05/11 10:32:46;;;;;;;22.00;14.95;;;21.20;99.90;;;;;;5009078;28;20103;-76
2023/05/11 10:35:11;;;;;;;19.52;14.00;;;21.50;99.90;;;;;;5020394;28;20042;-74
2023/05/11 10:37:39;;;;;;;18.63;14.07;;;20.70;99.90;;;;;;5026838;28;20095;-73
2023/05/11 10:40:06;;;;;;;17.02;12.85;;;22.20;99.90;;;;;;5030347;28;20061;-76
2023/05/11 10:42:52;;;;;;;16.30;11.65;;;21.20;99.90;;;;;;5021934;28;20069;-77
2023/05/11 10:45:56;;;;;;;14.93;11.30;;;20.50;99.90;;;;;;5026762;28;20189;-76
2023/05/11 10:48:39;;;;;;;16.00;12.45;;;20.50;99.90;;;;;;5031777;28;20044;-73
2023/05/11 10:51:33;;;;;;;14.27;11.27;;;21.00;99.90;;;;;;5031309;28;20051;-73
2023/05/11 10:54:05;;;;;;;13.27;11.07;;;21.20;99.90;;;;;;5024402;28;20043;-74
2023/05/11 10:56:42;;;;;;;12.57;9.38;;;21.10;99.90;;;;;;5030237;28;20025;-73
2023/05/11 10:59:42;;;;;;;9.90;8.50;;;21.00;99.90;;;;;;5028815;28;20115;-75
2023/05/11 11:02:09;;;;;;;11.60;9.15;;;21.40;99.90;;;;;;5031833;28;20033;-75
2023/05/11 11:04:43;;;;;;;11.45;8.75;;;22.50;99.90;;;;;;5013624;28;20044;-72
2023/05/11 11:07:10;;;;;;;;;;;22.40;99.90;;;;;;5029251;28;20361;-76
2023/05/11 11:09:49;;;;;;;9.55;8.10;;;21.20;99.90;;;;;;5031692;28;19925;-76
2023/05/11 11:12:15;;;;;;;9.35;8.30;;;22.10;99.90;;;;;;5014286;28;20045;-74
2023/05/11 11:14:55;;;;;;;9.60;8.27;;;22.60;99.90;;;;;;5015439;28;20415;-75
2023/05/11 11:17:24;;;;;;;9.23;7.35;;;22.20;99.90;;;;;;5046921;28;20033;-77
2023/05/11 11:19:49;;;;;;;13.38;10.02;;;22.00;99.90;;;;;;5026567;28;20033;-75
2023/05/11 11:22:33;;;;;;;12.93;10.52;;;21.50;99.90;;;;;;5025613;28;20193;-76
2023/05/11 11:25:00;;;;;;;12.15;10.77;;;21.40;99.90;;;;;;5028178;28;20049;-76
2023/05/11 11:27:48;;;;;;;11.18;8.75;;;20.80;99.90;;;;;;5029436;28;20049;-76
2023/05/11 11:30:21;;;;;;;8.40;7.38;;;21.50;99.90;;;;;;5029721;28;20408;-73
2023/05/11 11:32:49;;;;;;;8.45;6.30;;;20.50;99.90;;;;;;5014544;28;20477;-78
2023/05/11 11:35:43;;;;;;;7.03;6.03;;;20.50;99.90;;;;;;5026828;28;20128;-74
2023/05/11 11:38:14;;;;;;;5.88;4.88;;;20.60;99.90;;;;;;5030099;28;20040;-74
2023/05/11 11:40:44;;;;;;;4.72;4.25;;;21.40;99.90;;;;;;5013102;28;20068;-75
2023/05/11 11:43:16;;;;;;;5.18;3.80;;;20.90;99.90;;;;;;5026425;28;20076;-74
2023/05/11 11:45:59;;;;;;;5.40;3.88;;;21.80;99.90;;;;;;5013469;28;20048;-76
2023/05/11 11:48:29;;;;;;;4.20;3.80;;;21.20;99.90;;;;;;5025778;28;20074;-75
2023/05/11 11:51:02;;;;;;;5.25;3.17;;;22.00;99.90;;;;;;5029653;28;20119;-76
2023/05/11 11:53:40;;;;;;;3.33;3.05;;;21.30;99.90;;;;;;5028675;28;20767;-77
2023/05/11 11:56:08;;;;;;;3.45;3.08;;;21.90;99.90;;;;;;5014032;28;20041;-78
2023/05/11 11:58:45;;;;;;;3.47;2.90;;;21.70;99.90;;;;;;5011188;28;20515;-77
2023/05/11 12:01:12;;;;;;;3.30;3.00;;;21.10;99.90;;;;;;5009816;28;20041;-78
2023/05/11 12:03:43;;;;;;;3.83;3.00;;;21.50;99.90;;;;;;5030710;28;20560;-79
2023/05/11 12:06:10;;;;;;;3.95;3.20;;;21.60;99.90;;;;;;5030359;28;20041;-80
2023/05/11 12:08:38;;;;;;;7.47;2.45;;;21.30;99.90;;;;;;5030754;28;20047;-80
2023/05/11 12:11:05;;;;;;;3.08;2.58;;;21.20;99.90;;;;;;5030132;28;20792;-79
2023/05/11 12:13:32;;;;;;;2.95;2.75;;;21.80;99.90;;;;;;5014669;28;20063;-80
2023/05/11 12:16:12;;;;;;;4.07;3.13;;;21.00;99.90;;;;;;4998123;28;20029;-78
2023/05/11 12:18:39;;;;;;;3.10;2.90;;;20.80;99.90;;;;;;5013939;28;20029;-79
2023/05/11 12:21:05;;;;;;;7.68;3.80;;;20.90;99.90;;;;;;4997187;28;20138;-79
2023/05/11 12:23:31;;;;;;;4.97;4.20;;;21.20;99.90;;;;;;4998787;28;20123;-80
2023/05/11 12:26:04;;;;;;;4.45;4.05;;;21.00;99.90;;;;;;5030943;28;20492;-79
2023/05/11 12:28:31;;;;;;;4.18;3.78;;;21.10;99.90;;;;;;5030114;28;20029;-79
2023/05/11 12:30:57;;;;;;;5.80;5.30;;;20.90;99.90;;;;;;5029965;28;20613;-79
2023/05/11 12:33:23;;;;;;;4.88;4.40;;;21.60;99.90;;;;;;5012648;28;20048;-80
2023/05/11 12:35:53;;;;;;;5.30;4.40;;;21.90;99.90;;;;;;5014598;28;20037;-79
2023/05/11 12:38:20;;;;;;;5.78;4.60;;;21.40;99.90;;;;;;5014533;28;20037;-79